createdAt,value
2019-01-05T00:02:02.464Z,22.27
2019-01-05T00:04:53.757Z,34.93
2019-01-05T00:07:47.919Z,22.03
2019-01-05T00:10:37.101Z,24.77
2019-01-05T00:13:29.417Z,18.80
2019-01-05T00:16:27.332Z,23.37
2019-01-05T00:19:17.199Z,18.67
2019-01-05T00:22:04.689Z,22.97
2019-01-05T00:24:58.353Z,23.40
2019-01-05T00:27:45.227Z,24.90
2019-01-05T00:30:34.568Z,21.40
2019-01-05T00:33:37.627Z,22.27
2019-01-05T00:36:52.244Z,20.60
2019-01-05T00:39:48.358Z,24.50
2019-01-05T00:42:41.992Z,20.20
2019-01-05T00:45:30.807Z,23.33
2019-01-05T00:48:22.392Z,23.83
2019-01-05T00:51:29.490Z,18.07
2019-01-05T00:57:22.164Z,17.60
2019-01-05T01:00:05.752Z,19.77
2019-01-05T01:02:54.934Z,21.60
2019-01-05T01:05:49.883Z,28.13
2019-01-05T01:08:46.596Z,14.33
2019-01-05T01:11:44.683Z,16.30
2019-01-05T01:17:38.464Z,19.37
2019-01-05T01:20:31.118Z,14.07
2019-01-05T01:23:32.989Z,13.97
2019-01-05T01:26:23.109Z,15.23
2019-01-05T01:29:11.203Z,15.03
2019-01-05T01:35:17.916Z,14.37
2019-01-05T01:39:04.920Z,15.77
2019-01-05T01:42:05.263Z,11.40
2019-01-05T01:45:05.757Z,12.20
2019-01-05T01:48:05.725Z,10.30
2019-01-05T01:50:56.262Z,11.03
2019-01-05T01:53:45.921Z,14.77
2019-01-05T01:56:46.303Z,11.00
2019-01-05T01:59:43.495Z,12.93
2019-01-05T02:02:36.117Z,10.47
2019-01-05T02:05:28.226Z,13.50
2019-01-05T02:11:31.631Z,11.90
2019-01-05T02:14:22.759Z,10.20
2019-01-05T02:17:33.693Z,9.67
2019-01-05T02:20:52.248Z,15.40
2019-01-05T02:24:01.695Z,10.60
2019-01-05T02:27:18.728Z,9.47
2019-01-05T02:30:37.985Z,10.10
2019-01-05T02:34:05.009Z,12.83
2019-01-05T02:37:33.144Z,11.40
2019-01-05T02:41:23.846Z,16.27
2019-01-05T02:44:47.377Z,11.37
2019-01-05T02:48:12.994Z,13.43
2019-01-05T02:51:49.846Z,16.13
2019-01-05T02:55:27.290Z,15.73
2019-01-05T02:58:54.354Z,17.30
2019-01-05T03:02:25.491Z,13.37
2019-01-05T03:05:41.443Z,15.97
2019-01-05T03:09:14.756Z,15.60
2019-01-05T03:12:33.629Z,14.03
2019-01-05T03:16:13.041Z,14.47
2019-01-05T03:19:56.288Z,11.63
2019-01-05T03:23:10.281Z,15.63
2019-01-05T03:26:34.968Z,10.57
2019-01-05T03:30:26.012Z,9.57
2019-01-05T03:33:58.464Z,8.83
2019-01-05T03:37:20.231Z,10.10
2019-01-05T03:40:57.773Z,10.47
2019-01-05T03:44:38.931Z,12.40
2019-01-05T03:48:20.721Z,10.60
2019-01-05T03:52:25.869Z,9.40
2019-01-05T03:55:57.477Z,8.07
2019-01-05T03:59:28.462Z,8.60
2019-01-05T04:02:41.641Z,8.73
2019-01-05T04:05:55.060Z,12.10
2019-01-05T04:09:10.197Z,9.20
2019-01-05T04:12:33.420Z,8.37
2019-01-05T04:16:15.273Z,12.17
2019-01-05T04:20:01.448Z,10.27
2019-01-05T04:23:47.967Z,9.03
2019-01-05T04:27:07.251Z,8.90
2019-01-05T04:30:41.496Z,6.67
2019-01-05T04:33:58.193Z,9.87
2019-01-05T04:37:40.801Z,8.17
2019-01-05T04:41:09.236Z,8.63
2019-01-05T04:44:29.164Z,7.30
2019-01-05T04:47:59.947Z,10.10
2019-01-05T04:51:43.447Z,6.67
2019-01-05T04:55:05.210Z,6.03
2019-01-05T04:58:33.186Z,10.10
2019-01-05T05:02:04.857Z,7.80
2019-01-05T05:05:47.164Z,6.70
2019-01-05T05:09:20.889Z,6.97
2019-01-05T05:12:50.443Z,12.77
2019-01-05T05:16:37.081Z,10.07
2019-01-05T05:20:09.101Z,19.90
2019-01-05T05:23:55.264Z,26.50
2019-01-05T05:27:17.011Z,11.90
2019-01-05T05:30:57.541Z,11.90
2019-01-05T05:34:30.924Z,11.93
2019-01-05T05:38:01.916Z,11.87
2019-01-05T05:41:25.427Z,5.27
2019-01-05T05:44:54.389Z,11.63
2019-01-05T05:48:30.245Z,9.83
2019-01-05T05:52:19.439Z,12.00
2019-01-05T05:55:49.187Z,7.40
2019-01-05T05:59:13.813Z,13.47
2019-01-05T06:02:46.446Z,16.33
2019-01-05T06:06:29.623Z,11.50
2019-01-05T06:09:52.977Z,9.47
2019-01-05T06:13:42.771Z,13.87
2019-01-05T06:17:09.224Z,10.20
2019-01-05T06:20:29.251Z,14.27
2019-01-05T06:24:06.996Z,10.13
2019-01-05T06:27:54.415Z,9.20
2019-01-05T06:31:39.259Z,5.43
2019-01-05T06:35:23.544Z,4.97
2019-01-05T06:38:58.422Z,8.30
2019-01-05T06:42:23.424Z,5.50
2019-01-05T06:46:07.042Z,7.70
2019-01-05T06:49:30.823Z,6.77
2019-01-05T06:52:36.958Z,3.33
2019-01-05T06:56:00.216Z,4.20
2019-01-05T06:59:47.397Z,3.33
2019-01-05T07:03:37.199Z,4.23
2019-01-05T07:06:54.031Z,2.90
2019-01-05T07:10:28.947Z,4.03
2019-01-05T07:14:02.222Z,5.43
2019-01-05T07:17:42.822Z,6.53
2019-01-05T07:21:15.850Z,2.77
2019-01-05T07:24:46.949Z,9.67
2019-01-05T07:28:14.163Z,4.77
2019-01-05T07:31:57.353Z,5.00
2019-01-05T07:35:38.678Z,6.33
2019-01-05T07:39:50.269Z,7.93
2019-01-05T07:43:18.575Z,5.43
2019-01-05T07:47:05.742Z,4.30
2019-01-05T07:50:29.324Z,4.37
2019-01-05T07:54:08.058Z,6.17
2019-01-05T07:57:47.412Z,3.77
2019-01-05T08:01:31.235Z,7.57
2019-01-05T08:04:47.328Z,8.23
2019-01-05T08:08:15.385Z,12.63
2019-01-05T08:11:50.970Z,13.33
2019-01-05T08:15:06.026Z,9.87
2019-01-05T08:18:51.758Z,22.83
2019-01-05T08:22:48.907Z,18.57
2019-01-05T08:26:24.474Z,22.17
2019-01-05T08:29:48.635Z,26.67
2019-01-05T08:33:51.790Z,13.87
2019-01-05T08:37:26.993Z,23.80
2019-01-05T08:40:57.331Z,43.63
2019-01-05T08:44:39.211Z,49.57
2019-01-05T08:48:05.527Z,45.67
2019-01-05T08:51:33.463Z,26.07
2019-01-05T08:55:39.583Z,24.03
2019-01-05T08:59:36.517Z,34.17
2019-01-05T09:02:45.808Z,32.33
2019-01-05T09:06:30.420Z,14.17
2019-01-05T09:10:01.665Z,19.73
2019-01-05T09:13:36.619Z,12.90
2019-01-05T09:17:20.752Z,52.27
2019-01-05T09:20:44.961Z,12.00
2019-01-05T09:24:25.678Z,11.37
2019-01-05T09:27:42.783Z,14.90
2019-01-05T09:31:06.973Z,10.00
2019-01-05T09:34:32.539Z,7.83
2019-01-05T09:37:51.440Z,42.73
2019-01-05T09:41:43.176Z,100.03
2019-01-05T09:45:10.700Z,81.70
2019-01-05T09:48:37.864Z,11.17
2019-01-05T09:52:27.198Z,16.43
2019-01-05T09:56:14.809Z,20.00
2019-01-05T09:59:50.443Z,10.77
2019-01-05T10:03:35.829Z,14.27
2019-01-05T10:07:25.396Z,20.23
2019-01-05T10:10:56.082Z,8.03
2019-01-05T10:14:40.230Z,10.57
2019-01-05T10:18:22.048Z,9.87
2019-01-05T10:21:46.367Z,7.83
2019-01-05T10:25:10.146Z,7.73
2019-01-05T10:29:04.200Z,8.83
2019-01-05T10:32:20.492Z,10.77
2019-01-05T10:36:04.519Z,14.50
2019-01-05T10:39:36.767Z,15.30
2019-01-05T10:43:03.620Z,4.20
2019-01-05T10:46:37.078Z,6.87
2019-01-05T10:50:18.637Z,6.73
2019-01-05T10:53:45.590Z,8.50
2019-01-05T10:57:34.780Z,14.13
2019-01-05T11:01:12.966Z,3.43
2019-01-05T11:04:52.661Z,10.80
2019-01-05T11:08:17.873Z,5.23
2019-01-05T11:11:42.052Z,10.30
2019-01-05T11:15:05.395Z,7.03
2019-01-05T11:18:46.149Z,9.73
2019-01-05T11:22:20.788Z,6.57
2019-01-05T11:25:58.353Z,3.97
2019-01-05T11:29:37.349Z,5.43
2019-01-05T11:32:55.319Z,5.80
2019-01-05T11:36:20.836Z,9.80
2019-01-05T11:39:48.669Z,4.53
2019-01-05T11:43:27.310Z,3.80
2019-01-05T11:47:08.522Z,11.00
2019-01-05T11:50:39.897Z,2.37
2019-01-05T11:54:19.147Z,4.87
2019-01-05T11:57:48.369Z,5.33
2019-01-05T12:01:29.131Z,8.87
2019-01-05T12:05:26.667Z,3.37
2019-01-05T12:08:59.725Z,3.57
2019-01-05T12:12:37.945Z,6.20
2019-01-05T12:16:05.842Z,9.03
2019-01-05T12:19:39.020Z,12.17
2019-01-05T12:23:23.047Z,7.20
2019-01-05T12:27:00.044Z,10.40
2019-01-05T12:30:42.254Z,6.33
2019-01-05T12:34:20.234Z,8.73
2019-01-05T12:37:55.280Z,6.93
2019-01-05T12:41:18.413Z,9.17
2019-01-05T12:44:51.666Z,3.67
2019-01-05T12:48:16.763Z,5.87
2019-01-05T12:51:47.532Z,7.93
2019-01-05T12:55:13.728Z,7.43
2019-01-05T12:58:43.620Z,3.90
2019-01-05T13:01:57.967Z,8.73
2019-01-05T13:05:42.714Z,5.53
2019-01-05T13:09:18.574Z,10.17
2019-01-05T13:12:47.015Z,6.10
2019-01-05T13:16:19.766Z,2.50
2019-01-05T13:19:43.914Z,7.43
2019-01-05T13:23:41.443Z,6.73
2019-01-05T13:27:30.998Z,7.43
2019-01-05T13:31:17.303Z,7.40
2019-01-05T13:34:56.189Z,6.00
2019-01-05T13:38:42.977Z,6.63
2019-01-05T13:42:07.202Z,5.50
2019-01-05T13:45:41.591Z,8.13
2019-01-05T13:49:06.067Z,6.57
2019-01-05T13:52:29.161Z,26.83
2019-01-05T13:55:19.358Z,21.60
2019-01-05T13:58:09.975Z,12.80
2019-01-05T14:04:16.897Z,4.63
2019-01-05T14:07:07.652Z,12.43
2019-01-05T14:09:57.854Z,11.40
2019-01-05T14:12:44.870Z,10.77
2019-01-05T14:15:48.077Z,11.00
2019-01-05T14:18:38.601Z,11.03
2019-01-05T14:24:51.375Z,3.73
2019-01-05T14:27:43.422Z,7.67
2019-01-05T14:30:31.152Z,4.57
2019-01-05T14:33:28.181Z,6.57
2019-01-05T14:36:13.306Z,8.33
2019-01-05T14:39:14.622Z,5.33
2019-01-05T14:42:22.237Z,3.63
2019-01-05T14:45:25.162Z,2.67
2019-01-05T14:48:34.668Z,5.73
2019-01-05T14:51:27.435Z,5.60
2019-01-05T14:54:14.891Z,9.47
2019-01-05T14:57:23.042Z,10.30
2019-01-05T15:00:19.958Z,9.00
2019-01-05T15:06:17.352Z,19.40
2019-01-05T15:09:26.250Z,18.93
2019-01-05T15:12:30.031Z,17.43
2019-01-05T15:15:36.575Z,15.63
2019-01-05T15:18:24.279Z,10.93
2019-01-05T15:21:25.978Z,8.50
2019-01-05T15:24:15.130Z,11.80
2019-01-05T15:27:11.907Z,6.33
2019-01-05T15:30:11.591Z,9.70
2019-01-05T15:33:06.359Z,8.40
2019-01-05T15:35:57.851Z,10.20
2019-01-05T15:38:55.489Z,10.57
2019-01-05T15:41:53.041Z,17.07
2019-01-05T15:44:46.046Z,12.73
2019-01-05T15:47:43.516Z,11.77
2019-01-05T15:50:38.706Z,7.33
2019-01-05T15:53:28.986Z,9.40
2019-01-05T15:59:36.880Z,10.87
2019-01-05T16:02:24.312Z,10.67
2019-01-05T16:05:13.797Z,5.23
2019-01-05T16:08:05.525Z,6.23
2019-01-05T16:11:04.141Z,6.93
2019-01-05T16:13:51.741Z,7.83
2019-01-05T16:16:39.424Z,10.03
2019-01-05T16:19:46.270Z,7.43
2019-01-05T16:22:52.089Z,8.00
2019-01-05T16:25:41.265Z,8.57
2019-01-05T16:28:31.226Z,12.47
2019-01-05T16:31:18.611Z,10.90
2019-01-05T16:34:14.720Z,14.33
2019-01-05T16:37:22.346Z,12.13
2019-01-05T16:40:10.957Z,7.70
2019-01-05T16:43:03.784Z,9.97
2019-01-05T16:45:56.137Z,7.77
2019-01-05T16:48:48.047Z,8.80
2019-01-05T16:51:55.002Z,8.53
2019-01-05T16:54:57.315Z,7.90
2019-01-05T16:58:03.150Z,13.57
2019-01-05T17:00:59.464Z,13.47
2019-01-05T17:03:48.116Z,10.77
2019-01-05T17:06:35.737Z,10.10
2019-01-05T17:09:28.089Z,11.80
2019-01-05T17:12:31.951Z,20.17
2019-01-05T17:15:27.827Z,16.00
2019-01-05T17:18:25.132Z,10.67
2019-01-05T17:21:16.336Z,11.47
2019-01-05T17:24:06.539Z,10.97
2019-01-05T17:27:08.798Z,15.63
2019-01-05T17:30:23.921Z,11.20
2019-01-05T17:36:13.493Z,11.93
2019-01-05T17:39:25.208Z,6.93
2019-01-05T17:42:18.872Z,8.17
2019-01-05T17:45:06.858Z,9.83
2019-01-05T17:51:18.363Z,7.30
2019-01-05T17:54:25.079Z,5.50
2019-01-05T18:00:20.253Z,9.13
2019-01-05T18:03:21.638Z,9.90
2019-01-05T18:06:14.146Z,8.83
2019-01-05T18:09:39.531Z,10.93
2019-01-05T18:12:47.415Z,7.57
2019-01-05T18:15:51.022Z,10.70
2019-01-05T18:18:39.699Z,12.07
2019-01-05T18:21:37.776Z,12.70
2019-01-05T18:24:32.443Z,9.23
2019-01-05T18:27:29.986Z,13.63
2019-01-05T18:30:22.436Z,14.77
2019-01-05T18:36:25.398Z,14.57
2019-01-05T18:39:13.260Z,18.10
2019-01-05T18:42:02.443Z,28.07
2019-01-05T18:45:00.407Z,19.00
2019-01-05T18:47:56.458Z,27.27
2019-01-05T18:51:04.007Z,34.90
2019-01-05T18:53:58.470Z,47.70
2019-01-05T18:56:59.589Z,74.90
2019-01-05T18:59:49.206Z,13.83
2019-01-05T19:02:51.775Z,9.03
2019-01-05T19:08:47.934Z,11.50
2019-01-05T19:15:08.475Z,10.43
2019-01-05T19:17:59.444Z,12.40
2019-01-05T19:21:05.203Z,9.87
2019-01-05T19:23:55.075Z,10.23
2019-01-05T19:26:49.736Z,15.23
2019-01-05T19:29:41.927Z,8.70
2019-01-05T19:32:44.208Z,8.17
2019-01-05T19:35:39.995Z,10.63
2019-01-05T19:38:35.194Z,9.47
2019-01-05T19:41:38.854Z,10.93
2019-01-05T19:44:29.896Z,11.00
2019-01-05T19:47:23.304Z,13.57
2019-01-05T19:50:14.026Z,10.03
2019-01-05T19:53:01.780Z,7.27
2019-01-05T19:55:51.750Z,10.03
2019-01-05T19:58:41.317Z,8.67
2019-01-05T20:01:30.105Z,13.60
2019-01-05T20:04:34.620Z,17.97
2019-01-05T20:07:22.392Z,12.90
2019-01-05T20:10:22.575Z,16.03
2019-01-05T20:13:10.238Z,16.27
2019-01-05T20:16:22.673Z,12.83
2019-01-05T20:19:12.480Z,10.00
2019-01-05T20:22:10.437Z,11.33
2019-01-05T20:25:03.956Z,12.00
2019-01-05T20:27:52.396Z,14.40
2019-01-05T20:31:03.351Z,20.23
2019-01-05T20:33:54.484Z,47.93
2019-01-05T20:36:42.795Z,64.00
2019-01-05T20:39:32.332Z,88.10
2019-01-05T20:42:37.417Z,128.07
2019-01-05T20:45:41.103Z,38.40
2019-01-05T20:48:33.365Z,42.07
2019-01-05T20:51:25.302Z,137.73
2019-01-05T20:54:17.981Z,77.27
2019-01-05T20:57:10.991Z,169.27
2019-01-05T21:00:06.311Z,40.00
2019-01-05T21:02:59.671Z,22.87
2019-01-05T21:06:05.868Z,37.93
2019-01-05T21:08:58.009Z,21.73
2019-01-05T21:11:51.943Z,9.17
2019-01-05T21:14:42.730Z,9.90
2019-01-05T21:17:30.198Z,4.80
2019-01-05T21:20:38.838Z,6.90
2019-01-05T21:23:30.710Z,7.67
2019-01-05T21:26:24.705Z,9.23
2019-01-05T21:29:18.380Z,5.53
2019-01-05T21:32:28.023Z,6.37
2019-01-05T21:35:19.605Z,8.67
2019-01-05T21:38:18.964Z,7.87
2019-01-05T21:41:31.312Z,31.30
2019-01-05T21:44:28.299Z,8.87
2019-01-05T21:50:52.786Z,14.37
2019-01-05T21:53:49.290Z,22.07
2019-01-05T21:57:00.400Z,15.27
2019-01-05T22:00:04.155Z,22.47
2019-01-05T22:03:34.429Z,22.03
2019-01-05T22:06:26.798Z,6.67
2019-01-05T22:09:29.160Z,9.67
2019-01-05T22:12:26.414Z,15.63
2019-01-05T22:15:26.842Z,7.93
2019-01-05T22:18:25.529Z,11.67
2019-01-05T22:24:43.331Z,9.53
2019-01-05T22:27:30.680Z,7.03
2019-01-05T22:33:48.584Z,11.53
2019-01-05T22:36:37.884Z,8.30
2019-01-05T22:39:45.759Z,14.10
2019-01-05T22:42:37.133Z,10.03
2019-01-05T22:45:26.595Z,10.77
2019-01-05T22:51:26.765Z,13.50
2019-01-05T22:54:23.276Z,11.23
2019-01-05T22:57:23.304Z,11.60
2019-01-05T23:00:11.902Z,10.43
2019-01-05T23:03:01.706Z,8.97
2019-01-05T23:05:51.089Z,11.80
2019-01-05T23:08:51.369Z,14.37
2019-01-05T23:11:37.564Z,11.13
2019-01-05T23:14:38.039Z,12.00
2019-01-05T23:17:26.285Z,17.17
2019-01-05T23:20:31.458Z,13.00
2019-01-05T23:23:27.484Z,14.17
2019-01-05T23:26:33.953Z,11.83
2019-01-05T23:29:32.398Z,10.90
2019-01-05T23:32:39.919Z,12.10
2019-01-05T23:35:29.691Z,16.63
2019-01-05T23:38:30.402Z,15.57
2019-01-05T23:41:29.411Z,15.27
2019-01-05T23:44:32.523Z,13.23
2019-01-05T23:47:24.346Z,13.60
2019-01-05T23:50:12.098Z,11.70
2019-01-05T23:53:03.646Z,16.93
2019-01-05T23:55:59.368Z,18.50
2019-01-05T23:58:47.188Z,14.27
